sensor_id;sensor_type;location;lat;lon;timestamp;temperature;humidity
20610;DHT22;10463;52.378;9.688;2024-01-25T00:00:04;20.90;25.00
20610;DHT22;10463;52.378;9.688;2024-01-25T00:02:49;20.90;24.50
20610;DHT22;10463;52.378;9.688;2024-01-25T00:05:34;20.90;25.00
20610;DHT22;10463;52.378;9.688;2024-01-25T00:08:18;20.90;24.50
20610;DHT22;10463;52.378;9.688;2024-01-25T00:11:04;20.90;24.50
20610;DHT22;10463;52.378;9.688;2024-01-25T00:13:50;20.90;24.50
20610;DHT22;10463;52.378;9.688;2024-01-25T00:16:35;20.90;24.50
20610;DHT22;10463;52.378;9.688;2024-01-25T00:19:19;20.90;24.50
20610;DHT22;10463;52.378;9.688;2024-01-25T00:22:04;20.90;24.50
20610;DHT22;10463;52.378;9.688;2024-01-25T00:24:48;20.90;24.50
20610;DHT22;10463;52.378;9.688;2024-01-25T00:27:33;20.90;24.50
20610;DHT22;10463;52.378;9.688;2024-01-25T00:30:19;20.90;24.50
20610;DHT22;10463;52.378;9.688;2024-01-25T00:33:04;20.90;24.50
20610;DHT22;10463;52.378;9.688;2024-01-25T00:35:49;20.90;24.50
20610;DHT22;10463;52.378;9.688;2024-01-25T00:38:35;20.90;24.50
20610;DHT22;10463;52.378;9.688;2024-01-25T00:41:20;20.90;24.50
20610;DHT22;10463;52.378;9.688;2024-01-25T00:44:06;20.90;24.50
20610;DHT22;10463;52.378;9.688;2024-01-25T00:46:53;20.90;24.50
20610;DHT22;10463;52.378;9.688;2024-01-25T00:49:38;20.90;24.50
20610;DHT22;10463;52.378;9.688;2024-01-25T00:52:24;20.90;24.50
20610;DHT22;10463;52.378;9.688;2024-01-25T00:55:11;20.90;24.50
20610;DHT22;10463;52.378;9.688;2024-01-25T00:57:56;20.90;24.50
20610;DHT22;10463;52.378;9.688;2024-01-25T01:00:42;20.90;24.50
20610;DHT22;10463;52.378;9.688;2024-01-25T01:03:29;20.90;24.50
20610;DHT22;10463;52.378;9.688;2024-01-25T01:06:14;20.90;24.50
20610;DHT22;10463;52.378;9.688;2024-01-25T01:08:59;20.90;24.50
20610;DHT22;10463;52.378;9.688;2024-01-25T01:11:44;20.90;24.50
20610;DHT22;10463;52.378;9.688;2024-01-25T01:14:28;20.90;24.50
20610;DHT22;10463;52.378;9.688;2024-01-25T01:17:13;20.90;24.50
20610;DHT22;10463;52.378;9.688;2024-01-25T01:19:59;20.90;24.50
20610;DHT22;10463;52.378;9.688;2024-01-25T01:22:43;20.90;24.50
20610;DHT22;10463;52.378;9.688;2024-01-25T01:25:28;20.90;24.50
20610;DHT22;10463;52.378;9.688;2024-01-25T01:28:13;20.90;24.50
20610;DHT22;10463;52.378;9.688;2024-01-25T01:30:58;20.90;24.50
20610;DHT22;10463;52.378;9.688;2024-01-25T01:33:44;20.90;24.50
20610;DHT22;10463;52.378;9.688;2024-01-25T01:36:30;20.90;24.50
20610;DHT22;10463;52.378;9.688;2024-01-25T01:39:14;20.90;24.50
20610;DHT22;10463;52.378;9.688;2024-01-25T01:41:59;20.90;24.50
20610;DHT22;10463;52.378;9.688;2024-01-25T01:44:44;20.90;24.50
20610;DHT22;10463;52.378;9.688;2024-01-25T01:47:28;20.90;24.50
20610;DHT22;10463;52.378;9.688;2024-01-25T01:50:13;20.90;24.50
20610;DHT22;10463;52.378;9.688;2024-01-25T01:52:59;20.90;24.40
20610;DHT22;10463;52.378;9.688;2024-01-25T01:55:44;20.90;24.50
20610;DHT22;10463;52.378;9.688;2024-01-25T01:58:30;20.90;24.50
20610;DHT22;10463;52.378;9.688;2024-01-25T02:01:16;20.90;24.50
20610;DHT22;10463;52.378;9.688;2024-01-25T02:04:01;20.90;24.50
20610;DHT22;10463;52.378;9.688;2024-01-25T02:06:45;20.90;24.50
20610;DHT22;10463;52.378;9.688;2024-01-25T02:09:32;20.90;24.50
20610;DHT22;10463;52.378;9.688;2024-01-25T02:12:16;20.90;25.00
20610;DHT22;10463;52.378;9.688;2024-01-25T02:15:02;20.90;24.40
20610;DHT22;10463;52.378;9.688;2024-01-25T02:17:47;20.90;24.40
20610;DHT22;10463;52.378;9.688;2024-01-25T02:20:32;20.90;24.40
20610;DHT22;10463;52.378;9.688;2024-01-25T02:23:18;20.90;24.40
20610;DHT22;10463;52.378;9.688;2024-01-25T02:26:03;20.90;24.50
20610;DHT22;10463;52.378;9.688;2024-01-25T02:28:48;20.90;24.40
20610;DHT22;10463;52.378;9.688;2024-01-25T02:31:32;20.90;24.50
20610;DHT22;10463;52.378;9.688;2024-01-25T02:34:17;20.90;24.40
20610;DHT22;10463;52.378;9.688;2024-01-25T02:37:01;20.90;24.50
20610;DHT22;10463;52.378;9.688;2024-01-25T02:39:48;20.90;24.40
20610;DHT22;10463;52.378;9.688;2024-01-25T02:42:33;20.90;24.40
20610;DHT22;10463;52.378;9.688;2024-01-25T02:45:17;20.90;24.40
20610;DHT22;10463;52.378;9.688;2024-01-25T02:48:02;20.90;24.40
20610;DHT22;10463;52.378;9.688;2024-01-25T02:50:47;20.90;24.40
20610;DHT22;10463;52.378;9.688;2024-01-25T02:53:32;20.90;24.40
20610;DHT22;10463;52.378;9.688;2024-01-25T02:56:18;20.90;24.40
20610;DHT22;10463;52.378;9.688;2024-01-25T02:59:02;20.90;24.40
20610;DHT22;10463;52.378;9.688;2024-01-25T03:01:48;20.90;24.40
20610;DHT22;10463;52.378;9.688;2024-01-25T03:04:33;20.90;24.40
20610;DHT22;10463;52.378;9.688;2024-01-25T03:07:17;20.90;24.50
20610;DHT22;10463;52.378;9.688;2024-01-25T03:10:02;20.90;24.40
20610;DHT22;10463;52.378;9.688;2024-01-25T03:12:48;20.90;24.40
20610;DHT22;10463;52.378;9.688;2024-01-25T03:15:33;20.90;24.40
20610;DHT22;10463;52.378;9.688;2024-01-25T03:18:17;20.90;24.40
20610;DHT22;10463;52.378;9.688;2024-01-25T03:21:02;20.90;24.40
20610;DHT22;10463;52.378;9.688;2024-01-25T03:23:47;20.90;24.40
20610;DHT22;10463;52.378;9.688;2024-01-25T03:26:31;20.90;24.40
20610;DHT22;10463;52.378;9.688;2024-01-25T03:29:17;20.90;24.40
20610;DHT22;10463;52.378;9.688;2024-01-25T03:32:02;20.90;24.40
20610;DHT22;10463;52.378;9.688;2024-01-25T03:34:46;20.90;24.40
20610;DHT22;10463;52.378;9.688;2024-01-25T03:37:31;20.90;24.40
20610;DHT22;10463;52.378;9.688;2024-01-25T03:40:16;20.90;24.40
20610;DHT22;10463;52.378;9.688;2024-01-25T03:43:00;20.90;24.40
20610;DHT22;10463;52.378;9.688;2024-01-25T03:45:46;20.90;24.40
20610;DHT22;10463;52.378;9.688;2024-01-25T03:48:31;20.90;24.40
20610;DHT22;10463;52.378;9.688;2024-01-25T03:51:16;20.90;24.40
20610;DHT22;10463;52.378;9.688;2024-01-25T03:54:01;20.90;24.40
20610;DHT22;10463;52.378;9.688;2024-01-25T03:56:45;20.90;24.40
20610;DHT22;10463;52.378;9.688;2024-01-25T03:59:30;20.90;24.40
20610;DHT22;10463;52.378;9.688;2024-01-25T04:02:17;20.90;24.40
20610;DHT22;10463;52.378;9.688;2024-01-25T04:05:01;20.90;24.40
20610;DHT22;10463;52.378;9.688;2024-01-25T04:07:46;20.90;24.40
20610;DHT22;10463;52.378;9.688;2024-01-25T04:10:30;20.90;24.40
20610;DHT22;10463;52.378;9.688;2024-01-25T04:13:15;20.90;24.40
20610;DHT22;10463;52.378;9.688;2024-01-25T04:15:59;20.90;24.40
20610;DHT22;10463;52.378;9.688;2024-01-25T04:18:45;20.90;24.40
20610;DHT22;10463;52.378;9.688;2024-01-25T04:21:30;20.90;24.40
20610;DHT22;10463;52.378;9.688;2024-01-25T04:24:14;20.90;24.40
20610;DHT22;10463;52.378;9.688;2024-01-25T04:26:59;20.90;24.40
20610;DHT22;10463;52.378;9.688;2024-01-25T04:29:43;20.90;24.40
20610;DHT22;10463;52.378;9.688;2024-01-25T04:32:28;20.90;24.40
20610;DHT22;10463;52.378;9.688;2024-01-25T04:35:14;20.90;24.40
20610;DHT22;10463;52.378;9.688;2024-01-25T04:37:58;20.90;24.40
20610;DHT22;10463;52.378;9.688;2024-01-25T04:40:42;20.90;24.40
20610;DHT22;10463;52.378;9.688;2024-01-25T04:43:27;20.90;24.40
20610;DHT22;10463;52.378;9.688;2024-01-25T04:46:12;20.90;24.40
20610;DHT22;10463;52.378;9.688;2024-01-25T04:48:56;20.90;24.40
20610;DHT22;10463;52.378;9.688;2024-01-25T04:51:42;20.90;24.40
20610;DHT22;10463;52.378;9.688;2024-01-25T04:54:26;20.90;24.40
20610;DHT22;10463;52.378;9.688;2024-01-25T04:57:12;20.90;24.40
20610;DHT22;10463;52.378;9.688;2024-01-25T04:59:56;20.90;24.40
20610;DHT22;10463;52.378;9.688;2024-01-25T05:02:41;20.90;24.40
20610;DHT22;10463;52.378;9.688;2024-01-25T05:05:25;20.90;24.40
20610;DHT22;10463;52.378;9.688;2024-01-25T05:08:11;20.90;24.40
20610;DHT22;10463;52.378;9.688;2024-01-25T05:10:56;20.90;24.40
20610;DHT22;10463;52.378;9.688;2024-01-25T05:13:41;20.90;24.40
20610;DHT22;10463;52.378;9.688;2024-01-25T05:16:25;20.90;24.40
20610;DHT22;10463;52.378;9.688;2024-01-25T05:19:10;20.90;24.40
20610;DHT22;10463;52.378;9.688;2024-01-25T05:21:55;20.90;24.40
20610;DHT22;10463;52.378;9.688;2024-01-25T05:24:41;20.90;24.40
20610;DHT22;10463;52.378;9.688;2024-01-25T05:27:26;20.90;24.40
20610;DHT22;10463;52.378;9.688;2024-01-25T05:30:11;20.90;24.40
20610;DHT22;10463;52.378;9.688;2024-01-25T05:32:56;20.90;24.40
20610;DHT22;10463;52.378;9.688;2024-01-25T05:35:41;20.90;24.40
20610;DHT22;10463;52.378;9.688;2024-01-25T05:38:26;20.90;24.40
20610;DHT22;10463;52.378;9.688;2024-01-25T05:41:12;20.90;24.40
20610;DHT22;10463;52.378;9.688;2024-01-25T05:43:56;20.90;24.40
20610;DHT22;10463;52.378;9.688;2024-01-25T05:46:41;20.90;24.40
20610;DHT22;10463;52.378;9.688;2024-01-25T05:49:26;20.90;24.40
20610;DHT22;10463;52.378;9.688;2024-01-25T05:52:10;20.90;24.40
20610;DHT22;10463;52.378;9.688;2024-01-25T05:54:55;20.90;24.40
20610;DHT22;10463;52.378;9.688;2024-01-25T05:57:43;20.90;24.40
20610;DHT22;10463;52.378;9.688;2024-01-25T06:00:28;20.90;24.50
20610;DHT22;10463;52.378;9.688;2024-01-25T06:03:13;20.90;24.40
20610;DHT22;10463;52.378;9.688;2024-01-25T06:05:57;20.90;24.40
20610;DHT22;10463;52.378;9.688;2024-01-25T06:08:42;20.90;24.40
20610;DHT22;10463;52.378;9.688;2024-01-25T06:11:27;20.90;24.40
20610;DHT22;10463;52.378;9.688;2024-01-25T06:14:12;20.90;24.40
20610;DHT22;10463;52.378;9.688;2024-01-25T06:16:57;20.90;24.40
20610;DHT22;10463;52.378;9.688;2024-01-25T06:19:42;20.90;24.40
20610;DHT22;10463;52.378;9.688;2024-01-25T06:22:26;20.80;24.30
20610;DHT22;10463;52.378;9.688;2024-01-25T06:25:11;20.80;24.40
20610;DHT22;10463;52.378;9.688;2024-01-25T06:27:55;20.90;24.40
20610;DHT22;10463;52.378;9.688;2024-01-25T06:30:42;20.90;24.40
20610;DHT22;10463;52.378;9.688;2024-01-25T06:33:27;20.90;24.40
20610;DHT22;10463;52.378;9.688;2024-01-25T06:36:11;20.90;24.40
20610;DHT22;10463;52.378;9.688;2024-01-25T06:38:58;20.90;24.40
20610;DHT22;10463;52.378;9.688;2024-01-25T06:41:43;20.90;24.40
20610;DHT22;10463;52.378;9.688;2024-01-25T06:44:28;20.90;24.40
20610;DHT22;10463;52.378;9.688;2024-01-25T06:47:14;20.90;24.40
20610;DHT22;10463;52.378;9.688;2024-01-25T06:49:58;20.90;24.40
20610;DHT22;10463;52.378;9.688;2024-01-25T06:52:43;20.90;24.40
20610;DHT22;10463;52.378;9.688;2024-01-25T06:55:27;20.90;24.40
20610;DHT22;10463;52.378;9.688;2024-01-25T06:58:12;20.90;24.40
20610;DHT22;10463;52.378;9.688;2024-01-25T07:00:57;20.90;24.40
20610;DHT22;10463;52.378;9.688;2024-01-25T07:03:43;20.90;24.40
20610;DHT22;10463;52.378;9.688;2024-01-25T07:06:28;20.90;24.40
20610;DHT22;10463;52.378;9.688;2024-01-25T07:09:13;20.90;24.40
20610;DHT22;10463;52.378;9.688;2024-01-25T07:11:57;20.90;24.40
20610;DHT22;10463;52.378;9.688;2024-01-25T07:14:42;20.90;24.40
20610;DHT22;10463;52.378;9.688;2024-01-25T07:17:26;20.90;24.40
20610;DHT22;10463;52.378;9.688;2024-01-25T07:20:13;20.90;24.50
20610;DHT22;10463;52.378;9.688;2024-01-25T07:22:57;20.90;24.50
20610;DHT22;10463;52.378;9.688;2024-01-25T07:25:42;20.80;24.40
20610;DHT22;10463;52.378;9.688;2024-01-25T07:28:26;20.80;24.40
20610;DHT22;10463;52.378;9.688;2024-01-25T07:31:11;20.90;24.50
20610;DHT22;10463;52.378;9.688;2024-01-25T07:33:55;20.90;24.40
20610;DHT22;10463;52.378;9.688;2024-01-25T07:36:41;20.90;24.40
20610;DHT22;10463;52.378;9.688;2024-01-25T07:39:26;20.90;24.40
20610;DHT22;10463;52.378;9.688;2024-01-25T07:45:16;20.90;24.40
20610;DHT22;10463;52.378;9.688;2024-01-25T07:48:00;20.90;24.40
20610;DHT22;10463;52.378;9.688;2024-01-25T07:50:45;20.80;24.40
20610;DHT22;10463;52.378;9.688;2024-01-25T07:53:31;20.90;24.50
20610;DHT22;10463;52.378;9.688;2024-01-25T07:56:15;20.80;24.40
20610;DHT22;10463;52.378;9.688;2024-01-25T07:59:00;20.90;24.50
20610;DHT22;10463;52.378;9.688;2024-01-25T08:01:45;20.80;25.00
20610;DHT22;10463;52.378;9.688;2024-01-25T08:04:29;20.90;24.50
20610;DHT22;10463;52.378;9.688;2024-01-25T08:07:14;20.80;24.40
20610;DHT22;10463;52.378;9.688;2024-01-25T08:10:00;20.90;24.50
20610;DHT22;10463;52.378;9.688;2024-01-25T08:12:44;20.90;24.50
20610;DHT22;10463;52.378;9.688;2024-01-25T08:15:31;20.90;24.50
20610;DHT22;10463;52.378;9.688;2024-01-25T08:18:16;20.90;24.50
20610;DHT22;10463;52.378;9.688;2024-01-25T08:21:00;20.90;24.50
20610;DHT22;10463;52.378;9.688;2024-01-25T08:23:45;20.90;24.50
20610;DHT22;10463;52.378;9.688;2024-01-25T08:26:30;20.80;24.40
20610;DHT22;10463;52.378;9.688;2024-01-25T08:29:15;20.90;25.00
20610;DHT22;10463;52.378;9.688;2024-01-25T08:32:00;20.90;24.50
20610;DHT22;10463;52.378;9.688;2024-01-25T08:34:44;20.90;24.50
20610;DHT22;10463;52.378;9.688;2024-01-25T08:37:29;20.90;24.50
20610;DHT22;10463;52.378;9.688;2024-01-25T08:40:13;20.90;24.50
20610;DHT22;10463;52.378;9.688;2024-01-25T08:43:00;20.90;24.50
20610;DHT22;10463;52.378;9.688;2024-01-25T08:45:44;20.90;24.50
20610;DHT22;10463;52.378;9.688;2024-01-25T08:48:29;20.90;24.50
20610;DHT22;10463;52.378;9.688;2024-01-25T08:51:13;20.90;24.50
20610;DHT22;10463;52.378;9.688;2024-01-25T08:53:58;20.80;24.40
20610;DHT22;10463;52.378;9.688;2024-01-25T08:56:42;20.80;24.40
20610;DHT22;10463;52.378;9.688;2024-01-25T08:59:28;20.90;24.50
20610;DHT22;10463;52.378;9.688;2024-01-25T09:02:15;20.90;25.10
20610;DHT22;10463;52.378;9.688;2024-01-25T09:05:00;20.90;24.50
20610;DHT22;10463;52.378;9.688;2024-01-25T09:07:45;20.90;24.50
20610;DHT22;10463;52.378;9.688;2024-01-25T09:10:29;20.90;24.50
20610;DHT22;10463;52.378;9.688;2024-01-25T09:13:14;20.90;24.50
20610;DHT22;10463;52.378;9.688;2024-01-25T09:16:00;20.90;24.50
20610;DHT22;10463;52.378;9.688;2024-01-25T09:18:44;20.90;24.50
20610;DHT22;10463;52.378;9.688;2024-01-25T09:21:29;20.90;24.50
20610;DHT22;10463;52.378;9.688;2024-01-25T09:24:13;20.90;24.50
20610;DHT22;10463;52.378;9.688;2024-01-25T09:26:58;20.90;24.50
20610;DHT22;10463;52.378;9.688;2024-01-25T09:29:44;20.90;24.50
20610;DHT22;10463;52.378;9.688;2024-01-25T09:32:30;20.90;24.50
20610;DHT22;10463;52.378;9.688;2024-01-25T09:35:15;20.90;24.50
20610;DHT22;10463;52.378;9.688;2024-01-25T09:37:59;20.90;24.50
20610;DHT22;10463;52.378;9.688;2024-01-25T09:40:44;20.90;24.50
20610;DHT22;10463;52.378;9.688;2024-01-25T09:43:29;20.90;24.50
20610;DHT22;10463;52.378;9.688;2024-01-25T09:46:14;20.90;24.50
20610;DHT22;10463;52.378;9.688;2024-01-25T09:49:01;20.90;24.50
20610;DHT22;10463;52.378;9.688;2024-01-25T09:51:47;20.90;24.50
20610;DHT22;10463;52.378;9.688;2024-01-25T09:54:36;20.90;24.50
20610;DHT22;10463;52.378;9.688;2024-01-25T09:57:24;20.90;24.50
20610;DHT22;10463;52.378;9.688;2024-01-25T10:00:10;20.90;25.10
20610;DHT22;10463;52.378;9.688;2024-01-25T10:02:56;20.90;24.50
20610;DHT22;10463;52.378;9.688;2024-01-25T10:05:42;20.90;24.50
20610;DHT22;10463;52.378;9.688;2024-01-25T10:08:27;20.90;24.50
20610;DHT22;10463;52.378;9.688;2024-01-25T10:11:12;20.90;24.50
20610;DHT22;10463;52.378;9.688;2024-01-25T10:13:56;20.90;24.50
20610;DHT22;10463;52.378;9.688;2024-01-25T10:16:41;20.90;24.50
20610;DHT22;10463;52.378;9.688;2024-01-25T10:19:26;20.90;24.50
20610;DHT22;10463;52.378;9.688;2024-01-25T10:22:13;20.90;25.10
20610;DHT22;10463;52.378;9.688;2024-01-25T10:24:57;20.90;24.50
20610;DHT22;10463;52.378;9.688;2024-01-25T10:27:42;21.00;24.70
20610;DHT22;10463;52.378;9.688;2024-01-25T10:30:27;21.00;24.70
20610;DHT22;10463;52.378;9.688;2024-01-25T10:33:15;21.00;24.70
20610;DHT22;10463;52.378;9.688;2024-01-25T10:36:01;21.00;24.70
20610;DHT22;10463;52.378;9.688;2024-01-25T10:38:48;21.00;24.70
20610;DHT22;10463;52.378;9.688;2024-01-25T10:41:35;21.00;24.70
20610;DHT22;10463;52.378;9.688;2024-01-25T10:44:20;21.00;24.70
20610;DHT22;10463;52.378;9.688;2024-01-25T10:47:06;21.00;24.70
20610;DHT22;10463;52.378;9.688;2024-01-25T10:49:52;21.00;24.70
20610;DHT22;10463;52.378;9.688;2024-01-25T10:52:38;21.00;24.70
20610;DHT22;10463;52.378;9.688;2024-01-25T10:55:24;21.00;24.70
20610;DHT22;10463;52.378;9.688;2024-01-25T10:58:13;21.00;24.70
20610;DHT22;10463;52.378;9.688;2024-01-25T11:00:58;21.00;24.70
20610;DHT22;10463;52.378;9.688;2024-01-25T11:03:46;21.00;24.70
20610;DHT22;10463;52.378;9.688;2024-01-25T11:06:33;21.00;24.60
20610;DHT22;10463;52.378;9.688;2024-01-25T11:09:20;21.00;24.70
20610;DHT22;10463;52.378;9.688;2024-01-25T11:12:13;21.00;24.60
20610;DHT22;10463;52.378;9.688;2024-01-25T11:14:58;21.00;24.70
20610;DHT22;10463;52.378;9.688;2024-01-25T11:17:54;21.00;24.70
20610;DHT22;10463;52.378;9.688;2024-01-25T11:20:38;21.00;24.70
20610;DHT22;10463;52.378;9.688;2024-01-25T11:23:31;21.00;24.60
20610;DHT22;10463;52.378;9.688;2024-01-25T11:26:17;21.00;24.70
20610;DHT22;10463;52.378;9.688;2024-01-25T11:29:03;21.00;24.70
20610;DHT22;10463;52.378;9.688;2024-01-25T11:31:50;21.00;24.60
20610;DHT22;10463;52.378;9.688;2024-01-25T11:34:35;21.00;24.60
20610;DHT22;10463;52.378;9.688;2024-01-25T11:37:22;21.00;24.60
20610;DHT22;10463;52.378;9.688;2024-01-25T11:40:08;21.00;24.60
20610;DHT22;10463;52.378;9.688;2024-01-25T11:42:54;21.00;24.70
20610;DHT22;10463;52.378;9.688;2024-01-25T11:45:40;21.00;24.70
20610;DHT22;10463;52.378;9.688;2024-01-25T11:48:27;21.00;24.70
20610;DHT22;10463;52.378;9.688;2024-01-25T11:51:12;21.10;24.70
20610;DHT22;10463;52.378;9.688;2024-01-25T11:53:57;21.10;24.70
20610;DHT22;10463;52.378;9.688;2024-01-25T11:56:43;21.10;24.70
20610;DHT22;10463;52.378;9.688;2024-01-25T11:59:27;21.10;24.70
20610;DHT22;10463;52.378;9.688;2024-01-25T12:02:13;21.10;24.70
20610;DHT22;10463;52.378;9.688;2024-01-25T12:04:58;21.10;24.70
20610;DHT22;10463;52.378;9.688;2024-01-25T12:07:43;21.10;24.70
20610;DHT22;10463;52.378;9.688;2024-01-25T12:10:28;21.10;24.70
20610;DHT22;10463;52.378;9.688;2024-01-25T12:13:12;21.10;24.70
20610;DHT22;10463;52.378;9.688;2024-01-25T12:15:57;21.10;24.70
20610;DHT22;10463;52.378;9.688;2024-01-25T12:18:44;21.10;24.70
20610;DHT22;10463;52.378;9.688;2024-01-25T12:21:29;21.10;24.70
20610;DHT22;10463;52.378;9.688;2024-01-25T12:24:17;21.10;24.70
20610;DHT22;10463;52.378;9.688;2024-01-25T12:27:02;21.10;25.20
20610;DHT22;10463;52.378;9.688;2024-01-25T12:29:47;21.10;24.70
20610;DHT22;10463;52.378;9.688;2024-01-25T12:32:31;21.10;24.70
20610;DHT22;10463;52.378;9.688;2024-01-25T12:35:17;21.10;24.70
20610;DHT22;10463;52.378;9.688;2024-01-25T12:38:02;21.10;24.70
20610;DHT22;10463;52.378;9.688;2024-01-25T12:40:47;21.10;24.70
20610;DHT22;10463;52.378;9.688;2024-01-25T12:43:32;21.10;24.70
20610;DHT22;10463;52.378;9.688;2024-01-25T12:46:17;21.10;24.70
20610;DHT22;10463;52.378;9.688;2024-01-25T12:49:01;21.10;24.70
20610;DHT22;10463;52.378;9.688;2024-01-25T12:51:49;21.10;24.70
20610;DHT22;10463;52.378;9.688;2024-01-25T12:54:34;21.10;24.70
20610;DHT22;10463;52.378;9.688;2024-01-25T12:57:18;21.10;24.70
20610;DHT22;10463;52.378;9.688;2024-01-25T13:00:04;21.10;24.70
20610;DHT22;10463;52.378;9.688;2024-01-25T13:02:50;21.20;24.80
20610;DHT22;10463;52.378;9.688;2024-01-25T13:05:35;21.20;24.80
20610;DHT22;10463;52.378;9.688;2024-01-25T13:08:21;21.20;24.80
20610;DHT22;10463;52.378;9.688;2024-01-25T13:11:05;21.20;24.80
20610;DHT22;10463;52.378;9.688;2024-01-25T13:13:50;21.20;24.80
20610;DHT22;10463;52.378;9.688;2024-01-25T13:16:35;21.20;24.80
20610;DHT22;10463;52.378;9.688;2024-01-25T13:19:20;21.20;24.80
20610;DHT22;10463;52.378;9.688;2024-01-25T13:22:05;21.20;24.80
20610;DHT22;10463;52.378;9.688;2024-01-25T13:24:50;21.20;24.80
20610;DHT22;10463;52.378;9.688;2024-01-25T13:27:35;21.20;24.80
20610;DHT22;10463;52.378;9.688;2024-01-25T13:30:19;21.20;24.80
20610;DHT22;10463;52.378;9.688;2024-01-25T13:33:04;21.20;24.80
20610;DHT22;10463;52.378;9.688;2024-01-25T13:35:49;21.20;24.80
20610;DHT22;10463;52.378;9.688;2024-01-25T13:38:34;21.20;24.80
20610;DHT22;10463;52.378;9.688;2024-01-25T13:41:20;21.20;24.80
20610;DHT22;10463;52.378;9.688;2024-01-25T13:44:05;21.20;24.80
20610;DHT22;10463;52.378;9.688;2024-01-25T13:46:50;21.20;24.80
20610;DHT22;10463;52.378;9.688;2024-01-25T13:49:34;21.20;24.80
20610;DHT22;10463;52.378;9.688;2024-01-25T13:52:20;21.20;24.80
20610;DHT22;10463;52.378;9.688;2024-01-25T13:55:06;21.20;24.80
20610;DHT22;10463;52.378;9.688;2024-01-25T13:57:52;21.20;24.80
20610;DHT22;10463;52.378;9.688;2024-01-25T14:00:36;21.30;24.90
20610;DHT22;10463;52.378;9.688;2024-01-25T14:03:21;21.20;24.80
20610;DHT22;10463;52.378;9.688;2024-01-25T14:06:06;21.30;24.80
20610;DHT22;10463;52.378;9.688;2024-01-25T14:08:53;21.30;24.80
20610;DHT22;10463;52.378;9.688;2024-01-25T14:11:38;21.30;25.40
20610;DHT22;10463;52.378;9.688;2024-01-25T14:14:24;21.30;24.90
20610;DHT22;10463;52.378;9.688;2024-01-25T14:17:09;21.30;24.90
20610;DHT22;10463;52.378;9.688;2024-01-25T14:19:53;21.30;24.90
20610;DHT22;10463;52.378;9.688;2024-01-25T14:22:38;21.30;24.90
20610;DHT22;10463;52.378;9.688;2024-01-25T14:25:23;21.30;24.90
20610;DHT22;10463;52.378;9.688;2024-01-25T14:28:08;21.30;24.80
20610;DHT22;10463;52.378;9.688;2024-01-25T14:30:54;21.30;24.80
20610;DHT22;10463;52.378;9.688;2024-01-25T14:33:38;21.30;24.80
20610;DHT22;10463;52.378;9.688;2024-01-25T14:36:23;21.30;24.80
20610;DHT22;10463;52.378;9.688;2024-01-25T14:39:07;21.30;24.80
20610;DHT22;10463;52.378;9.688;2024-01-25T14:41:53;21.30;24.80
20610;DHT22;10463;52.378;9.688;2024-01-25T14:44:38;21.30;24.80
20610;DHT22;10463;52.378;9.688;2024-01-25T14:47:24;21.30;24.80
20610;DHT22;10463;52.378;9.688;2024-01-25T14:50:10;21.30;24.80
20610;DHT22;10463;52.378;9.688;2024-01-25T14:52:54;21.40;24.90
20610;DHT22;10463;52.378;9.688;2024-01-25T14:55:39;21.40;24.90
20610;DHT22;10463;52.378;9.688;2024-01-25T14:58:24;21.40;24.90
20610;DHT22;10463;52.378;9.688;2024-01-25T15:01:13;21.40;24.90
20610;DHT22;10463;52.378;9.688;2024-01-25T15:03:59;21.40;24.90
20610;DHT22;10463;52.378;9.688;2024-01-25T15:06:43;21.40;24.90
20610;DHT22;10463;52.378;9.688;2024-01-25T15:09:28;21.40;24.90
20610;DHT22;10463;52.378;9.688;2024-01-25T15:12:12;21.40;24.80
20610;DHT22;10463;52.378;9.688;2024-01-25T15:14:57;21.40;24.80
20610;DHT22;10463;52.378;9.688;2024-01-25T15:17:43;21.40;24.80
20610;DHT22;10463;52.378;9.688;2024-01-25T15:20:29;21.40;24.80
20610;DHT22;10463;52.378;9.688;2024-01-25T15:23:15;21.40;24.80
20610;DHT22;10463;52.378;9.688;2024-01-25T15:26:02;21.40;24.80
20610;DHT22;10463;52.378;9.688;2024-01-25T15:28:47;21.40;24.80
20610;DHT22;10463;52.378;9.688;2024-01-25T15:31:32;21.40;24.80
20610;DHT22;10463;52.378;9.688;2024-01-25T15:34:16;21.40;24.80
20610;DHT22;10463;52.378;9.688;2024-01-25T15:37:03;21.40;24.80
20610;DHT22;10463;52.378;9.688;2024-01-25T15:39:48;21.40;24.80
20610;DHT22;10463;52.378;9.688;2024-01-25T15:42:33;21.40;24.80
20610;DHT22;10463;52.378;9.688;2024-01-25T15:45:17;21.40;24.80
20610;DHT22;10463;52.378;9.688;2024-01-25T15:48:03;21.40;24.80
20610;DHT22;10463;52.378;9.688;2024-01-25T15:50:47;21.40;24.80
20610;DHT22;10463;52.378;9.688;2024-01-25T15:53:33;21.50;24.80
20610;DHT22;10463;52.378;9.688;2024-01-25T15:56:18;21.40;24.70
20610;DHT22;10463;52.378;9.688;2024-01-25T15:59:02;21.50;24.80
20610;DHT22;10463;52.378;9.688;2024-01-25T16:01:47;21.40;24.70
20610;DHT22;10463;52.378;9.688;2024-01-25T16:04:32;21.50;24.80
20610;DHT22;10463;52.378;9.688;2024-01-25T16:07:16;21.50;24.80
20610;DHT22;10463;52.378;9.688;2024-01-25T16:10:03;21.40;24.70
20610;DHT22;10463;52.378;9.688;2024-01-25T16:12:48;21.50;24.70
20610;DHT22;10463;52.378;9.688;2024-01-25T16:15:33;21.50;24.70
20610;DHT22;10463;52.378;9.688;2024-01-25T16:18:17;21.50;24.70
20610;DHT22;10463;52.378;9.688;2024-01-25T16:21:02;21.40;24.60
20610;DHT22;10463;52.378;9.688;2024-01-25T16:23:47;21.50;24.70
20610;DHT22;10463;52.378;9.688;2024-01-25T16:26:33;21.50;24.70
20610;DHT22;10463;52.378;9.688;2024-01-25T16:29:18;21.50;24.70
20610;DHT22;10463;52.378;9.688;2024-01-25T16:32:04;21.50;24.80
20610;DHT22;10463;52.378;9.688;2024-01-25T16:34:48;21.50;24.80
20610;DHT22;10463;52.378;9.688;2024-01-25T16:37:33;21.50;24.80
20610;DHT22;10463;52.378;9.688;2024-01-25T16:40:18;21.50;24.90
20610;DHT22;10463;52.378;9.688;2024-01-25T16:43:04;21.50;24.90
20610;DHT22;10463;52.378;9.688;2024-01-25T16:45:49;21.50;24.90
20610;DHT22;10463;52.378;9.688;2024-01-25T16:48:33;21.50;24.90
20610;DHT22;10463;52.378;9.688;2024-01-25T16:51:18;21.50;24.90
20610;DHT22;10463;52.378;9.688;2024-01-25T16:54:04;21.50;24.90
20610;DHT22;10463;52.378;9.688;2024-01-25T16:56:48;21.50;25.00
20610;DHT22;10463;52.378;9.688;2024-01-25T16:59:34;21.50;25.00
20610;DHT22;10463;52.378;9.688;2024-01-25T17:02:18;21.50;25.00
20610;DHT22;10463;52.378;9.688;2024-01-25T17:05:03;21.50;25.00
20610;DHT22;10463;52.378;9.688;2024-01-25T17:07:48;21.60;25.10
20610;DHT22;10463;52.378;9.688;2024-01-25T17:10:33;21.50;25.00
20610;DHT22;10463;52.378;9.688;2024-01-25T17:13:18;21.50;25.00
20610;DHT22;10463;52.378;9.688;2024-01-25T17:16:05;21.50;24.90
20610;DHT22;10463;52.378;9.688;2024-01-25T17:18:49;21.60;25.00
20610;DHT22;10463;52.378;9.688;2024-01-25T17:21:35;21.60;25.00
20610;DHT22;10463;52.378;9.688;2024-01-25T17:24:20;21.60;25.00